Time;durP1;ratioP1;P1;durP2;ratioP2;P2;SDS_P1;SDS_P2;PMS_P1;PMS_P2;Temp;Humidity;BMP_temperature;BMP_pressure;BME280_temperature;BME280_humidity;BME280_pressure;Samples;Min_cycle;Max_cycle;Signal;HPM_P1;HPM_P2
2023/04/02 00:01:31;;;;;;;3.80;2.90;;;;;;;16.97;54.09;96192.78;4943966;28;20207;-91
2023/04/02 00:04:02;;;;;;;2.97;2.60;;;;;;;19.51;54.24;96630.63;4943234;29;20212;-91
2023/04/02 00:06:32;;;;;;;4.30;2.77;;;;;;;16.94;54.19;96207.94;4947247;28;20253;-89
2023/04/02 00:09:11;;;;;;;4.03;2.70;;;;;;;19.42;54.06;96612.59;4928232;28;20224;-91
2023/04/02 00:11:45;;;;;;;2.57;2.37;;;;;;;17.45;53.91;96284.59;4961855;28;20205;-92
2023/04/02 00:14:16;;;;;;;2.80;2.23;;;;;;;17.33;54.04;96271.56;4928188;29;20531;-91
2023/04/02 00:16:43;;;;;;;2.93;2.33;;;;;;;17.26;53.92;96257.00;4943751;29;20204;-91
2023/04/02 00:19:17;;;;;;;4.00;2.77;;;;;;;17.00;53.91;96207.22;4912310;29;20189;-92
2023/04/02 00:21:44;;;;;;;3.10;2.57;;;;;;;17.93;53.96;96380.69;4927929;29;20182;-91
2023/04/02 00:24:19;;;;;;;2.77;2.47;;;;;;;17.31;53.90;96263.91;4912123;29;20203;-96
2023/04/02 00:26:51;;;;;;;3.30;2.70;;;;;;;16.98;54.24;96201.25;4928189;29;20192;-91
2023/04/02 00:29:18;;;;;;;3.27;2.63;;;;;;;17.28;54.07;96253.66;4943433;29;20269;-89
2023/04/02 00:31:49;;;;;;;3.80;2.60;;;;;;;17.93;53.98;96359.50;4927906;29;20185;-92
2023/04/02 00:34:26;;;;;;;3.80;2.90;;;;;;;19.52;53.99;96633.22;4928287;29;20257;-94
2023/04/02 00:36:53;;;;;;;3.20;2.90;;;;;;;18.40;53.79;96439.50;4951011;28;20205;-89
2023/04/02 00:39:28;;;;;;;4.03;2.30;;;;;;;16.51;54.11;96125.56;4933071;29;20185;-92
2023/04/02 00:42:03;;;;;;;3.83;2.80;;;;;;;16.91;53.91;96201.91;4915498;29;20205;-91
2023/04/02 00:44:41;;;;;;;3.23;2.60;;;;;;;17.87;53.99;96355.13;4939562;28;20209;-93
2023/04/02 00:47:19;;;;;;;2.60;2.40;;;;;;;17.95;53.95;96370.56;4913835;29;20692;-91
2023/04/02 00:49:46;;;;;;;5.53;2.40;;;;;;;17.38;53.84;96275.91;4943297;28;20240;-90
2023/04/02 00:52:21;;;;;;;2.63;2.43;;;;;;;17.13;53.82;96242.25;4934055;29;20185;-91
2023/04/02 00:55:41;;;;;;;3.03;2.40;;;;;;;18.24;53.95;96443.34;4913010;28;20200;-93
2023/04/02 00:58:34;;;;;;;3.77;2.57;;;;;;;17.94;54.13;96376.47;4956326;28;20229;-91
2023/04/02 01:01:01;;;;;;;2.80;2.53;;;;;;;19.02;53.90;96582.72;4954674;28;20209;-91
2023/04/02 01:03:34;;;;;;;3.13;2.23;;;;;;;17.80;53.96;96347.31;4928211;29;20228;-90
2023/04/02 01:06:10;;;;;;;2.87;2.50;;;;;;;19.53;54.10;96645.13;4957740;28;20206;-92
2023/04/02 01:09:02;;;;;;;3.90;2.90;;;;;;;17.95;54.29;96396.00;4954129;28;20232;-91
2023/04/02 01:12:24;;;;;;;3.00;2.57;;;;;;;16.99;53.91;96228.34;4935126;29;20217;-92
2023/04/02 01:15:14;;;;;;;2.30;2.10;;;;;;;17.61;54.02;96338.34;4961445;28;20201;-90
2023/04/02 01:18:02;;;;;;;2.50;2.03;;;;;;;18.97;54.17;96558.84;4936383;29;20201;-88
2023/04/02 01:20:42;;;;;;;2.73;2.47;;;;;;;16.84;53.87;96197.50;4946169;29;20210;-93
2023/04/02 01:23:15;;;;;;;2.60;2.40;;;;;;;17.12;53.88;96248.16;4952508;28;20199;-90
2023/04/02 01:25:45;;;;;;;2.50;2.30;;;;;;;19.52;54.08;96656.16;4930645;28;20209;-91
2023/04/02 01:28:20;;;;;;;2.60;2.30;;;;;;;17.35;53.93;96325.78;4980996;28;20212;-93
2023/04/02 01:30:51;;;;;;;2.67;2.43;;;;;;;19.51;54.08;96656.97;4947345;29;20204;-93
2023/04/02 01:33:23;;;;;;;3.00;2.23;;;;;;;19.36;54.07;96635.38;4915995;28;20195;-93
2023/04/02 01:36:07;;;;;;;2.60;2.30;;;;;;;16.93;53.86;96228.19;4918383;29;20221;-94
2023/04/02 01:38:42;;;;;;;2.60;2.40;;;;;;;16.90;53.92;96225.56;4930974;29;20204;-92
2023/04/02 01:41:15;;;;;;;4.07;2.47;;;;;;;17.66;54.37;96352.06;4936443;29;20201;-93
2023/04/02 01:43:42;;;;;;;2.30;2.10;;;;;;;19.52;53.86;96663.81;4946133;29;20189;-89
2023/04/02 01:46:28;;;;;;;3.43;2.40;;;;;;;19.52;54.02;96668.03;4951107;28;20212;-93
2023/04/02 01:48:56;;;;;;;2.83;2.43;;;;;;;17.12;53.82;96261.72;4930250;29;20211;-91
2023/04/02 01:51:31;;;;;;;2.67;2.10;;;;;;;17.67;53.78;96363.91;4950481;28;20181;-93
2023/04/02 01:54:13;;;;;;;2.50;2.30;;;;;;;17.13;53.96;96270.16;4909047;29;20218;-91
2023/04/02 01:56:40;;;;;;;2.77;2.20;;;;;;;17.58;54.00;96350.13;4947991;28;20215;-92
2023/04/02 01:59:07;;;;;;;3.17;2.37;;;;;;;17.02;53.85;96261.44;4944773;29;20220;-92
2023/04/02 02:01:48;;;;;;;2.13;2.00;;;;;;;19.08;54.17;96610.88;4938004;29;20253;-90
2023/04/02 02:04:17;;;;;;;2.53;2.23;;;;;;;17.35;53.84;96313.94;4950570;28;20205;-93
2023/04/02 02:06:44;;;;;;;2.53;2.33;;;;;;;17.77;54.21;96376.03;5016442;23;20213;-90
2023/04/02 02:09:24;;;;;;;2.40;2.20;;;;;;;17.07;53.92;96268.34;4893293;29;20214;-92
2023/04/02 02:11:51;;;;;;;2.43;2.20;;;;;;;17.94;54.01;96437.44;4914975;29;20324;-92
2023/04/02 02:14:22;;;;;;;2.23;2.07;;;;;;;16.89;54.19;96250.09;4902163;29;20234;-94
2023/04/02 02:16:59;;;;;;;2.67;2.07;;;;;;;17.97;54.20;96419.78;4885784;29;20583;-92
2023/04/02 02:20:10;;;;;;;2.63;2.40;;;;;;;17.94;53.84;96427.28;4919616;29;20186;-89
2023/04/02 02:22:43;;;;;;;4.13;2.10;;;;;;;17.93;54.01;96415.41;4923319;29;20194;-91
2023/04/02 02:25:14;;;;;;;2.53;2.33;;;;;;;17.91;54.34;96412.84;4909490;29;20222;-92
2023/04/02 02:27:47;;;;;;;2.03;1.90;;;;;;;17.17;54.27;96282.13;4892081;29;20191;-92
2023/04/02 02:30:24;;;;;;;3.37;2.37;;;;;;;17.40;54.13;96325.06;4892386;29;20206;-93
2023/04/02 02:33:01;;;;;;;2.30;2.10;;;;;;;18.42;54.09;96499.78;4910855;29;20186;-88
2023/04/02 02:35:49;;;;;;;2.90;2.20;;;;;;;19.52;54.61;96711.34;4894972;29;20234;-94
2023/04/02 02:38:54;;;;;;;2.13;1.93;;;;;;;19.52;54.03;96688.41;4907665;29;20274;-92
2023/04/02 02:41:38;;;;;;;2.50;2.20;;;;;;;18.16;53.85;96485.50;4935579;29;20221;-91
2023/04/02 02:44:13;;;;;;;2.17;1.97;;;;;;;17.17;54.10;96307.53;4912371;29;20221;-92
2023/04/02 02:46:51;;;;;;;2.53;2.10;;;;;;;16.95;53.91;96274.75;4903977;29;20218;-92
2023/04/02 02:49:25;;;;;;;2.63;2.40;;;;;;;16.77;54.04;96239.59;4913779;29;20300;-92
2023/04/02 02:52:07;;;;;;;3.23;2.07;;;;;;;19.52;53.90;96709.66;4906971;29;20210;-92
2023/04/02 02:54:39;;;;;;;2.57;2.37;;;;;;;16.71;53.70;96231.81;4919081;29;20236;-90
2023/04/02 02:57:08;;;;;;;2.07;1.90;;;;;;;17.94;53.95;96457.78;4912818;29;20219;-92
2023/04/02 02:59:36;;;;;;;2.30;2.10;;;;;;;17.04;53.83;96295.31;4914055;29;20245;-91
2023/04/02 03:02:03;;;;;;;2.50;2.20;;;;;;;17.48;54.04;96384.59;4895650;29;20198;-90
2023/04/02 03:04:34;;;;;;;2.20;2.00;;;;;;;17.39;53.97;96375.81;4893297;29;20230;-92
2023/04/02 03:07:05;;;;;;;2.57;2.10;;;;;;;17.69;53.73;96425.81;4892565;29;20274;-94
2023/04/02 03:09:40;;;;;;;3.40;2.20;;;;;;;19.38;54.12;96713.56;4891836;29;20221;-92
2023/04/02 03:12:36;;;;;;;2.20;2.00;;;;;;;19.53;53.89;96734.31;4906694;29;20208;-93
2023/04/02 03:15:40;;;;;;;1.97;1.87;;;;;;;19.53;53.90;96736.88;4931445;29;20201;-92
2023/04/02 03:18:35;;;;;;;2.57;2.20;;;;;;;17.45;53.90;96376.03;4900127;29;20220;-93
2023/04/02 03:21:27;;;;;;;2.00;1.90;;;;;;;17.06;53.89;96327.53;4893158;29;20194;-96
2023/04/02 03:24:27;;;;;;;2.40;2.20;;;;;;;18.99;53.91;96641.22;4893652;29;20182;-93
2023/04/02 03:26:58;;;;;;;2.30;2.00;;;;;;;19.55;53.90;96749.66;4908832;29;20193;-90
2023/04/02 03:29:30;;;;;;;1.97;1.87;;;;;;;19.03;54.11;96657.41;4918039;29;20251;-92
2023/04/02 03:32:02;;;;;;;2.20;2.00;;;;;;;17.32;53.80;96382.41;4890943;29;20200;-92
2023/04/02 03:34:33;;;;;;;2.30;1.80;;;;;;;17.60;53.86;96427.22;4907642;29;20214;-94
2023/04/02 03:37:20;;;;;;;2.40;2.10;;;;;;;16.95;53.63;96328.91;4905674;29;20209;-95
2023/04/02 03:40:14;;;;;;;2.13;1.93;;;;;;;19.55;54.02;96767.50;4909265;29;20198;-91
2023/04/02 03:42:52;;;;;;;3.00;1.90;;;;;;;19.51;54.06;96765.69;4930519;29;20181;-93
2023/04/02 03:45:24;;;;;;;2.00;1.80;;;;;;;16.69;54.03;96290.94;4905654;29;20211;-93
2023/04/02 03:48:04;;;;;;;2.00;1.90;;;;;;;17.89;53.95;96497.50;4906391;29;20207;-91
2023/04/02 03:50:51;;;;;;;2.80;2.13;;;;;;;17.64;54.13;96442.59;4888842;29;20277;-91
2023/04/02 03:53:21;;;;;;;2.23;2.00;;;;;;;17.98;53.80;96511.31;4887991;29;20186;-93
2023/04/02 03:55:48;;;;;;;2.33;1.93;;;;;;;17.99;53.86;96510.50;4906180;29;20207;-89
2023/04/02 03:58:37;;;;;;;2.53;2.13;;;;;;;19.46;53.93;96770.69;4906176;29;20186;-90
2023/04/02 04:01:27;;;;;;;2.30;1.90;;;;;;;19.54;54.11;96774.25;4925726;29;20208;-94
2023/04/02 04:04:05;;;;;;;1.73;1.63;;;;;;;17.87;53.88;96522.88;4900393;29;20181;-88
2023/04/02 04:06:32;;;;;;;2.50;2.10;;;;;;;18.14;54.12;96535.44;4891597;29;20201;-91
2023/04/02 04:09:16;;;;;;;2.63;2.33;;;;;;;19.54;54.10;96787.00;4913514;29;20210;-90
2023/04/02 04:11:48;;;;;;;2.27;2.07;;;;;;;17.18;53.96;96387.94;4913158;29;20187;-89
2023/04/02 04:14:32;;;;;;;2.03;1.90;;;;;;;17.27;54.05;96411.91;4908609;29;20210;-92
2023/04/02 04:17:28;;;;;;;2.00;1.80;;;;;;;18.11;54.05;96548.94;4885423;29;20195;-93
2023/04/02 04:20:26;;;;;;;;;;;;;;;;;;;;;
2023/04/02 04:23:09;;;;;;;2.10;2.00;;;;;;;18.91;54.10;96702.94;4919518;29;20190;-88
2023/04/02 04:25:38;;;;;;;2.50;2.07;;;;;;;17.95;54.12;96554.41;4905864;29;20254;-91
2023/04/02 04:32:17;;;;;;;2.20;2.00;;;;;;;18.02;54.29;96547.84;4914923;29;20190;-90
2023/04/02 04:35:14;;;;;;;10.73;2.20;;;;;;;19.54;54.51;96821.84;4909763;29;20208;-90
2023/04/02 04:37:41;;;;;;;6.87;2.40;;;;;;;17.99;54.51;96570.63;4892880;29;20178;-93
2023/04/02 04:40:16;;;;;;;6.13;2.23;;;;;;;17.70;54.56;96505.41;4909891;29;20186;-92
2023/04/02 04:42:43;;;;;;;9.50;2.17;;;;;;;18.02;54.46;96574.13;4891736;29;20198;-93
2023/04/02 05:46:42;;;;;;;2.53;1.83;;;;;;;19.63;54.45;96891.72;3895739;23;20523;-93
2023/04/02 05:49:32;;;;;;;4.13;2.37;;;;;;;18.30;54.01;96690.19;5006813;28;20219;-95
2023/04/02 05:52:00;;;;;;;5.40;2.27;;;;;;;17.77;54.23;96604.72;4977584;28;20179;-93
2023/04/02 06:05:14;;;;;;;3.30;2.50;;;;;;;17.23;54.37;96505.72;5024172;28;20289;-91
2023/04/02 06:08:00;;;;;;;2.67;1.90;;;;;;;17.26;54.41;96569.28;4983751;28;20199;-92
2023/04/02 06:10:28;;;;;;;2.60;2.27;;;;;;;18.17;54.53;96690.63;4985914;28;20235;-93
2023/04/02 06:13:07;;;;;;;4.87;2.20;;;;;;;19.05;54.47;96844.22;4970910;28;20203;-90
2023/04/02 06:15:34;;;;;;;2.73;1.93;;;;;;;17.37;54.73;96543.38;5006069;28;20237;-94
2023/04/02 06:18:13;;;;;;;3.70;2.13;;;;;;;18.03;54.02;96686.84;4962521;28;20214;-91
2023/04/02 06:20:39;;;;;;;6.23;2.50;;;;;;;17.89;53.72;96675.41;4970170;28;20175;-93
2023/04/02 06:23:14;;;;;;;6.73;2.53;;;;;;;18.01;52.68;96668.13;4987182;28;20200;-90
2023/04/02 06:25:59;;;;;;;4.33;2.30;;;;;;;19.54;52.50;96951.81;5003263;28;20222;-91
2023/04/02 06:28:29;;;;;;;7.17;2.10;;;;;;;18.27;52.46;96727.38;4981343;28;20239;-93
2023/04/02 06:30:58;;;;;;;4.50;2.40;;;;;;;17.95;51.13;96712.00;4970295;28;20232;-89
2023/04/02 06:33:25;;;;;;;4.57;2.00;;;;;;;16.90;51.50;96513.13;4958057;28;20190;-92
2023/04/02 06:35:52;;;;;;;4.10;2.00;;;;;;;17.50;52.03;96603.06;4962392;28;20227;-90
2023/04/02 06:38:21;;;;;;;2.90;2.00;;;;;;;17.03;52.09;96534.69;4971865;28;20190;-92
2023/04/02 06:40:59;;;;;;;5.20;2.10;;;;;;;19.51;52.41;96961.91;4968700;28;20187;-91
2023/04/02 06:43:37;;;;;;;3.17;2.00;;;;;;;17.50;53.01;96639.47;4966114;28;20204;-91
2023/04/02 06:46:07;;;;;;;4.77;2.10;;;;;;;16.52;52.73;96474.72;4963546;28;20223;-93
2023/04/02 06:48:35;;;;;;;3.97;2.40;;;;;;;17.95;53.09;96723.88;4970823;28;20246;-90
2023/04/02 06:51:09;;;;;;;3.63;2.17;;;;;;;17.82;52.99;96694.66;4986126;28;20210;-90
2023/04/02 06:53:38;;;;;;;5.73;2.17;;;;;;;17.93;53.06;96716.22;4969885;28;20183;-90
2023/04/02 06:56:25;;;;;;;4.17;2.27;;;;;;;17.53;53.10;96661.56;4970411;28;20195;-91
2023/04/02 06:58:52;;;;;;;2.47;2.03;;;;;;;17.52;53.12;96658.16;4972783;28;20203;-92
2023/04/02 07:01:24;;;;;;;3.33;2.00;;;;;;;18.68;53.40;96846.53;4963979;28;20184;-92
2023/04/02 07:03:51;;;;;;;2.07;1.87;;;;;;;18.65;53.42;96857.47;4969601;28;20187;-89
2023/04/02 07:06:19;;;;;;;6.77;2.00;;;;;;;19.01;53.49;96934.06;4987292;28;20204;-89
2023/04/02 07:08:46;;;;;;;4.07;2.03;;;;;;;17.81;53.80;96717.50;4976552;28;20175;-92
2023/04/02 07:11:17;;;;;;;2.37;2.00;;;;;;;17.48;53.51;96663.09;4962166;28;20226;-91
2023/04/02 07:13:47;;;;;;;3.30;1.97;;;;;;;17.92;53.51;96731.41;4963376;28;20187;-92
2023/04/02 07:16:18;;;;;;;2.23;1.90;;;;;;;17.97;53.51;96738.34;4966803;28;20204;-90
2023/04/02 07:18:49;;;;;;;1.70;1.60;;;;;;;17.94;53.42;96757.72;4963248;28;20199;-91
2023/04/02 07:21:15;;;;;;;3.43;1.97;;;;;;;17.84;53.69;96741.34;4973697;28;20223;-91
2023/04/02 07:23:56;;;;;;;1.93;1.70;;;;;;;19.52;53.66;97029.91;4971632;28;20238;-89
2023/04/02 07:26:26;;;;;;;2.83;1.77;;;;;;;19.52;53.77;97015.47;4969765;28;20193;-92
2023/04/02 07:28:54;;;;;;;2.90;2.00;;;;;;;17.29;53.54;96661.63;4994095;28;20179;-91
2023/04/02 07:31:25;;;;;;;3.13;1.83;;;;;;;17.96;53.64;96751.88;4959213;28;20226;-90
2023/04/02 07:33:58;;;;;;;1.87;1.60;;;;;;;16.93;53.97;96599.50;4968048;28;20215;-90
2023/04/02 07:36:26;;;;;;;3.40;1.77;;;;;;;17.91;53.92;96738.16;4968379;28;20206;-92
2023/04/02 07:38:53;;;;;;;2.00;1.60;;;;;;;17.87;53.54;96764.31;4990827;28;20195;-93
2023/04/02 07:41:20;;;;;;;1.97;1.77;;;;;;;18.13;53.90;96809.22;4962672;28;20187;-92
2023/04/02 07:43:47;;;;;;;1.70;1.60;;;;;;;17.96;53.49;96749.34;4983952;28;20179;-91
2023/04/02 07:46:16;;;;;;;2.63;1.73;;;;;;;17.92;53.98;96759.38;4988269;28;20207;-92
2023/04/02 07:48:43;;;;;;;1.80;1.70;;;;;;;17.52;53.57;96703.88;4983981;28;20214;-94
2023/04/02 07:51:23;;;;;;;1.90;1.63;;;;;;;18.58;53.52;96898.81;4988198;28;20218;-92
2023/04/02 07:53:54;;;;;;;4.83;1.80;;;;;;;17.97;54.01;96814.63;4984007;28;20209;-88
2023/04/02 07:56:22;;;;;;;2.10;1.70;;;;;;;19.53;53.82;97046.91;4992596;28;20183;-91
2023/04/02 07:58:49;;;;;;;2.63;1.63;;;;;;;17.95;53.70;96805.22;4969086;28;20183;-96
2023/04/02 08:01:22;;;;;;;1.50;1.40;;;;;;;17.33;53.66;96680.34;4969427;28;20181;-90
2023/04/02 08:03:49;;;;;;;2.03;1.50;;;;;;;18.03;53.68;96817.34;4969798;28;20194;-89
2023/04/02 08:06:20;;;;;;;2.40;1.80;;;;;;;18.97;53.88;96989.13;4986488;28;20205;-92
2023/04/02 08:08:46;;;;;;;1.70;1.60;;;;;;;17.96;53.87;96796.78;4969269;28;20202;-90
2023/04/02 08:11:15;;;;;;;2.50;1.67;;;;;;;17.89;53.78;96793.16;4963030;28;20281;-92
2023/04/02 08:13:42;;;;;;;4.33;1.53;;;;;;;17.77;53.88;96789.38;4969508;28;20187;-92
2023/04/02 08:16:08;;;;;;;1.70;1.60;;;;;;;17.94;54.05;96817.06;4963334;28;20254;-92
2023/04/02 08:18:35;;;;;;;1.70;1.47;;;;;;;19.35;54.08;97066.75;4967566;28;20254;-91
2023/04/02 08:21:05;;;;;;;2.17;1.60;;;;;;;17.96;54.12;96815.44;4962952;28;20184;-91
2023/04/02 08:23:33;;;;;;;2.63;1.70;;;;;;;18.47;53.88;96906.94;4983044;28;20203;-92
2023/04/02 08:26:03;;;;;;;2.17;1.80;;;;;;;17.43;53.66;96729.00;4977271;28;20200;-89
2023/04/02 08:28:30;;;;;;;2.10;1.50;;;;;;;16.93;53.95;96670.56;4977175;28;20186;-93
2023/04/02 08:30:57;;;;;;;1.97;1.70;;;;;;;17.68;53.75;96807.72;4973543;28;20234;-89
2023/04/02 08:33:24;;;;;;;2.50;1.90;;;;;;;17.90;53.89;96847.41;4968265;28;20210;-90
2023/04/02 08:35:51;;;;;;;1.87;1.73;;;;;;;17.31;54.08;96725.16;4989055;28;20244;-90
2023/04/02 08:38:32;;;;;;;2.40;1.83;;;;;;;17.14;53.89;96691.59;4973456;28;20288;-92
2023/04/02 08:40:59;;;;;;;2.60;1.77;;;;;;;17.15;54.07;96693.31;4988101;28;20766;-90
2023/04/02 08:43:39;;;;;;;2.03;1.50;;;;;;;19.54;53.94;97114.94;4974450;28;20187;-92
2023/04/02 08:46:47;;;;;;;1.90;1.77;;;;;;;16.39;54.11;96585.84;4998768;28;20182;-91
2023/04/02 08:49:35;;;;;;;3.10;1.90;;;;;;;19.54;54.01;97113.22;4985621;28;20189;-90
2023/04/02 08:52:03;;;;;;;2.23;1.63;;;;;;;17.98;53.98;96859.56;4991560;28;20230;-91
2023/04/02 08:54:32;;;;;;;2.37;1.70;;;;;;;17.17;54.08;96718.78;4965863;28;20224;-91
2023/04/02 08:57:05;;;;;;;1.80;1.70;;;;;;;19.54;53.95;97120.03;4965519;28;20199;-90
2023/04/02 08:59:34;;;;;;;2.00;1.80;;;;;;;17.50;53.86;96788.50;4985649;28;20255;-94
2023/04/02 09:02:22;;;;;;;2.07;1.80;;;;;;;19.55;53.91;97126.84;5002738;28;20210;-91
2023/04/02 09:04:49;;;;;;;2.10;1.90;;;;;;;17.48;53.74;96785.91;4998549;28;20313;-91
2023/04/02 09:07:16;;;;;;;2.33;1.60;;;;;;;17.96;53.66;96850.16;4997889;28;20184;-91
2023/04/02 09:09:45;;;;;;;2.77;1.90;;;;;;;19.54;54.04;97158.25;4973439;28;20179;-92
2023/04/02 09:12:22;;;;;;;1.97;1.77;;;;;;;19.05;54.30;97061.53;4969103;28;20209;-92
2023/04/02 09:15:00;;;;;;;1.90;1.60;;;;;;;17.96;54.02;96894.25;4966170;28;20287;-91
2023/04/02 09:17:27;;;;;;;2.43;1.60;;;;;;;17.59;54.04;96801.50;4984351;28;20199;-90
2023/04/02 09:20:12;;;;;;;2.07;1.87;;;;;;;19.03;54.11;97072.47;4979539;28;20184;-91
2023/04/02 09:22:38;;;;;;;1.90;1.60;;;;;;;16.88;54.12;96725.41;4976556;28;20175;-91
2023/04/02 09:25:11;;;;;;;2.70;1.80;;;;;;;16.73;54.35;96669.06;4976229;28;20234;-91
2023/04/02 09:27:38;;;;;;;2.60;1.70;;;;;;;17.28;54.29;96775.81;4961264;28;20191;-92
2023/04/02 09:30:11;;;;;;;1.60;1.50;;;;;;;17.39;54.11;96798.25;4980871;28;20199;-92
2023/04/02 09:32:51;;;;;;;2.80;1.83;;;;;;;19.53;54.11;97159.94;4977190;28;20175;-91
2023/04/02 09:35:25;;;;;;;2.17;1.90;;;;;;;17.27;54.08;96777.53;4988514;28;20265;-92
2023/04/02 09:38:18;;;;;;;1.73;1.63;;;;;;;19.01;54.10;97076.69;4987429;28;20190;-91
2023/04/02 09:40:52;;;;;;;4.50;1.83;;;;;;;17.95;54.05;96907.75;4973189;28;20270;-91
2023/04/02 09:43:24;;;;;;;2.73;1.67;;;;;;;17.89;54.19;96910.06;4998718;28;20182;-94
2023/04/02 09:46:00;;;;;;;2.20;1.83;;;;;;;19.54;54.29;97174.38;4987727;28;20229;-90
2023/04/02 09:48:32;;;;;;;2.80;1.70;;;;;;;19.53;54.28;97189.63;4998592;28;20186;-93
2023/04/02 09:51:09;;;;;;;5.03;2.10;;;;;;;19.54;54.52;97178.66;5016758;28;20235;-90
2023/04/02 09:53:38;;;;;;;3.50;2.17;;;;;;;19.55;54.94;97182.91;4999037;28;20209;-91
2023/04/02 09:56:10;;;;;;;2.27;1.80;;;;;;;19.56;54.77;97179.53;4984737;28;20225;-92
2023/04/02 09:58:37;;;;;;;3.27;1.97;;;;;;;17.58;54.91;96842.94;4968889;28;20188;-95
2023/04/02 10:09:41;;;;;;;3.57;2.00;;;;;;;17.35;54.80;96803.19;5560006;23;20223;-91
2023/04/02 10:12:57;;;;;;;4.30;2.40;;;;;;;18.33;54.62;96972.63;5628642;23;20224;-90
2023/04/02 10:34:40;;;;;;;3.57;2.43;;;;;;;16.76;54.76;96736.78;4958098;29;20244;-94
2023/04/02 10:37:37;;;;;;;6.10;2.13;;;;;;;19.61;54.77;97209.47;4951037;28;20220;-93
2023/04/02 10:40:33;;;;;;;2.30;2.00;;;;;;;19.54;54.97;97194.78;4950527;29;20185;-94
2023/04/02 10:43:27;;;;;;;2.70;2.17;;;;;;;19.61;54.76;97213.69;4944384;28;20207;-93
2023/04/02 10:46:08;;;;;;;4.73;2.50;;;;;;;18.00;54.81;96946.91;4954415;28;20216;-94
2023/04/02 10:48:58;;;;;;;4.27;2.27;;;;;;;19.60;55.13;97214.53;4932774;29;20196;-95
2023/04/02 10:51:37;;;;;;;4.80;2.57;;;;;;;17.37;54.85;96865.03;4934322;29;20268;-95
2023/04/02 10:54:22;;;;;;;4.77;2.37;;;;;;;19.61;54.31;97221.34;4951383;28;20208;-94
2023/04/02 10:56:51;;;;;;;3.73;2.50;;;;;;;18.04;55.08;96979.28;4974537;28;20193;-95
2023/04/02 10:59:30;;;;;;;5.53;2.50;;;;;;;17.10;55.08;96795.50;4935132;29;20192;-95
2023/04/02 11:05:58;;;;;;;6.80;3.53;;;;;;;17.44;54.74;96854.31;4965357;28;20292;-94
2023/04/02 11:08:46;;;;;;;8.47;4.00;;;;;;;17.72;54.91;96929.00;4939661;29;20188;-96
2023/04/02 11:14:03;;;;;;;7.40;4.00;;;;;;;19.59;54.79;97234.03;5252625;23;20207;-95
2023/04/02 11:16:31;;;;;;;6.73;4.23;;;;;;;18.05;54.68;96969.94;4996633;28;20179;-95
2023/04/02 11:19:16;;;;;;;5.10;3.93;;;;;;;19.59;54.74;97234.03;4970961;28;20183;-95
2023/04/02 11:22:02;;;;;;;6.83;4.20;;;;;;;19.60;54.89;97232.38;5001551;28;20212;-95
2023/04/02 11:24:56;;;;;;;8.60;4.33;;;;;;;16.97;54.63;96789.16;4991181;28;20186;-94
2023/04/02 11:27:33;;;;;;;7.17;4.33;;;;;;;17.94;55.01;96969.56;4981264;28;20184;-96
2023/04/02 11:30:27;;;;;;;8.53;4.03;;;;;;;16.66;54.99;96727.97;4965571;28;20200;-96
2023/04/02 11:32:55;;;;;;;9.07;5.47;;;;;;;17.73;54.84;96910.38;4976249;28;20176;-94
2023/04/02 11:35:32;;;;;;;9.53;4.80;;;;;;;19.59;54.99;97243.34;4954694;29;20189;-95
2023/04/02 11:38:10;;;;;;;6.57;4.20;;;;;;;18.98;54.78;97150.44;4984440;28;20183;-95
2023/04/02 11:40:53;;;;;;;8.80;4.47;;;;;;;19.59;55.00;97239.13;4982276;28;20186;-95
2023/04/02 11:43:34;;;;;;;8.73;4.20;;;;;;;19.58;55.13;97246.72;5004090;28;20156;-95
2023/04/02 11:46:14;;;;;;;9.17;4.57;;;;;;;17.82;54.88;96938.66;4976712;28;20176;-94
2023/04/02 11:48:41;;;;;;;5.63;4.00;;;;;;;17.99;55.05;96996.03;4994752;28;20188;-95
2023/04/02 11:51:35;;;;;;;8.17;4.60;;;;;;;16.57;55.06;96735.25;4983520;28;20219;-95
2023/04/02 11:54:22;;;;;;;7.40;4.47;;;;;;;16.95;54.95;96815.28;4985707;28;20176;-95
2023/04/02 11:57:16;;;;;;;7.97;4.43;;;;;;;19.42;55.20;97224.13;4952792;28;20190;-95
2023/04/02 12:00:40;;;;;;;10.27;4.60;;;;;;;18.00;55.12;96981.66;4988943;28;20184;-94
2023/04/02 12:03:29;;;;;;;8.67;3.80;;;;;;;19.58;55.07;97265.44;4954148;28;20187;-95
2023/04/02 12:06:18;;;;;;;8.67;4.73;;;;;;;17.68;54.95;96950.00;4982603;28;21326;-95
2023/04/02 12:09:13;;;;;;;7.70;4.20;;;;;;;19.59;55.18;97282.47;4971260;23;20217;-94
2023/04/02 12:11:40;;;;;;;5.37;3.63;;;;;;;18.04;55.01;97032.66;4942422;29;20193;-95
2023/04/02 12:14:37;;;;;;;6.97;3.90;;;;;;;19.60;55.06;97299.47;4942139;29;20189;-95
2023/04/02 12:17:30;;;;;;;6.37;4.00;;;;;;;16.76;55.15;96845.88;4962807;29;20176;-96
2023/04/02 12:20:08;;;;;;;7.80;3.93;;;;;;;18.04;55.00;97039.41;4936874;29;20190;-95
2023/04/02 12:22:59;;;;;;;6.57;4.37;;;;;;;17.71;55.00;96980.59;4947469;29;20157;-96
2023/04/02 12:25:28;;;;;;;9.43;4.30;;;;;;;17.74;55.04;96998.50;4952044;29;20186;-96
2023/04/02 12:28:13;;;;;;;6.63;4.13;;;;;;;19.61;55.12;97320.75;4942273;29;20194;-94
2023/04/02 12:31:10;;;;;;;6.67;3.77;;;;;;;19.60;55.07;97312.22;4942640;29;20200;-96
2023/04/02 12:33:40;;;;;;;6.40;3.60;;;;;;;17.10;54.95;96884.34;4940839;29;20189;-95
2023/04/02 12:36:12;;;;;;;6.40;3.90;;;;;;;19.60;55.01;97316.47;4943871;29;20189;-96
2023/04/02 12:39:13;;;;;;;6.70;4.07;;;;;;;18.51;55.15;97140.31;4945312;29;20169;-95
2023/04/02 12:41:40;;;;;;;7.23;3.93;;;;;;;18.05;55.09;97062.34;4958000;29;20181;-95
2023/04/02 12:44:53;;;;;;;7.60;4.17;;;;;;;16.85;55.12;96885.16;4936507;29;20195;-95
2023/04/02 12:47:20;;;;;;;5.87;3.50;;;;;;;17.51;55.20;96993.41;4936944;29;20173;-95
2023/04/02 12:50:01;;;;;;;7.47;4.10;;;;;;;18.01;55.46;97057.97;4927273;29;20233;-96
2023/04/02 12:52:45;;;;;;;5.47;3.60;;;;;;;17.44;55.05;96950.84;4941756;29;20213;-95
2023/04/02 12:55:22;;;;;;;6.23;3.97;;;;;;;17.82;54.92;97027.59;4923311;29;20208;-95
2023/04/02 12:57:56;;;;;;;6.17;4.03;;;;;;;17.71;55.15;97020.41;4941423;29;20200;-92
2023/04/02 13:00:23;;;;;;;5.83;3.70;;;;;;;19.59;55.43;97335.13;4917777;29;20188;-95
2023/04/02 13:02:57;;;;;;;6.43;3.47;;;;;;;17.25;55.09;96944.19;4966467;28;20209;-95
2023/04/02 13:13:42;;;;;;;6.27;3.60;;;;;;;18.53;55.09;97187.88;5701801;23;20239;-94
2023/04/02 13:16:09;;;;;;;7.20;3.90;;;;;;;19.61;55.21;97346.25;4965834;28;20214;-94
2023/04/02 13:18:36;;;;;;;6.93;3.40;;;;;;;19.11;57.00;97272.25;4993346;28;20187;-95
2023/04/02 13:21:05;;;;;;;7.10;3.80;;;;;;;18.79;59.11;97237.16;4943899;28;20180;-95
2023/04/02 13:23:35;;;;;;;9.67;3.30;;;;;;;18.36;59.61;97127.00;4967261;28;20244;-95
2023/04/02 13:26:26;;;;;;;8.13;3.30;;;;;;;17.78;59.82;97042.69;4959018;28;20200;-94
2023/04/02 13:29:18;;;;;;;15.10;4.30;;;;;;;18.10;60.22;97075.22;4951987;28;20204;-95
2023/04/02 13:31:45;;;;;;;8.43;3.33;;;;;;;17.67;60.05;97031.25;4968631;28;20212;-94
2023/04/02 13:34:12;;;;;;;11.37;3.90;;;;;;;17.36;60.37;96947.09;4953494;28;20216;-95
2023/04/02 13:36:39;;;;;;;11.67;3.20;;;;;;;17.46;60.61;96992.38;4969046;23;20212;-93
2023/04/02 13:39:05;;;;;;;10.43;3.80;;;;;;;17.75;59.76;97032.41;4947931;29;20178;-95
2023/04/02 13:41:51;;;;;;;5.43;3.13;;;;;;;17.75;58.76;97001.91;4957535;29;20173;-94
2023/04/02 13:44:28;;;;;;;6.53;3.80;;;;;;;18.24;58.41;97095.22;4940320;29;20201;-94
2023/04/02 13:46:55;;;;;;;4.30;3.47;;;;;;;17.80;58.23;97023.28;4947481;28;20189;-95
2023/04/02 13:49:22;;;;;;;8.60;3.10;;;;;;;19.44;58.07;97309.13;4935765;29;20181;-94
2023/04/02 13:52:18;;;;;;;4.23;2.77;;;;;;;18.08;58.20;97080.25;4943948;28;20208;-91
2023/04/02 13:54:52;;;;;;;8.53;3.50;;;;;;;18.01;58.75;97068.16;4954322;28;20264;-93
2023/04/02 13:57:20;;;;;;;8.73;3.30;;;;;;;19.25;58.19;97283.81;4920655;29;20181;-93
2023/04/02 13:59:47;;;;;;;9.20;3.20;;;;;;;19.35;58.80;97312.22;4928901;29;20189;-93
2023/04/02 14:02:33;;;;;;;12.43;3.50;;;;;;;19.86;58.13;97384.50;4949952;29;20208;-94
2023/04/02 14:05:16;;;;;;;14.80;3.40;;;;;;;17.89;57.90;97059.22;4959429;28;20214;-92
2023/04/02 14:08:10;;;;;;;8.13;3.10;;;;;;;17.43;57.56;96992.22;4931738;29;20214;-94
2023/04/02 14:11:00;;;;;;;6.80;3.80;;;;;;;19.86;57.63;97402.34;4933476;29;20242;-94
2023/04/02 14:13:36;;;;;;;12.83;3.50;;;;;;;19.85;57.62;97411.69;4955292;28;20226;-94
2023/04/02 14:16:04;;;;;;;9.60;3.70;;;;;;;19.85;57.83;97413.38;4961703;28;20220;-95
2023/04/02 14:18:35;;;;;;;12.73;3.77;;;;;;;19.83;57.46;97418.41;4955237;29;20182;-96